sensor_id;sensor_type;location;lat;lon;timestamp;P1;durP1;ratioP1;P2;durP2;ratioP2
12663;SDS011;6396;58.490;15.528;2023-07-24T00:00:38;2.53;;;2.33;;
12663;SDS011;6396;58.490;15.528;2023-07-24T00:03:06;2.50;;;2.00;;
12663;SDS011;6396;58.490;15.528;2023-07-24T00:05:33;2.47;;;2.00;;
12663;SDS011;6396;58.490;15.528;2023-07-24T00:07:59;2.40;;;2.20;;
12663;SDS011;6396;58.490;15.528;2023-07-24T00:10:28;2.50;;;2.20;;
12663;SDS011;6396;58.490;15.528;2023-07-24T00:12:55;2.70;;;2.50;;
12663;SDS011;6396;58.490;15.528;2023-07-24T00:15:22;2.63;;;2.40;;
12663;SDS011;6396;58.490;15.528;2023-07-24T00:17:48;2.30;;;2.10;;
12663;SDS011;6396;58.490;15.528;2023-07-24T00:20:15;3.37;;;2.40;;
12663;SDS011;6396;58.490;15.528;2023-07-24T00:22:42;3.93;;;2.53;;
12663;SDS011;6396;58.490;15.528;2023-07-24T00:25:09;2.33;;;2.13;;
12663;SDS011;6396;58.490;15.528;2023-07-24T00:27:37;3.03;;;2.50;;
12663;SDS011;6396;58.490;15.528;2023-07-24T00:30:05;2.93;;;2.10;;
12663;SDS011;6396;58.490;15.528;2023-07-24T00:32:32;2.90;;;2.70;;
12663;SDS011;6396;58.490;15.528;2023-07-24T00:34:59;2.57;;;2.37;;
12663;SDS011;6396;58.490;15.528;2023-07-24T00:37:26;2.40;;;2.20;;
12663;SDS011;6396;58.490;15.528;2023-07-24T00:39:52;3.23;;;2.37;;
12663;SDS011;6396;58.490;15.528;2023-07-24T00:42:19;2.50;;;2.30;;
12663;SDS011;6396;58.490;15.528;2023-07-24T00:44:47;3.27;;;2.50;;
12663;SDS011;6396;58.490;15.528;2023-07-24T00:47:14;2.63;;;2.43;;
12663;SDS011;6396;58.490;15.528;2023-07-24T00:49:41;3.70;;;2.60;;
12663;SDS011;6396;58.490;15.528;2023-07-24T00:52:08;3.33;;;2.97;;
12663;SDS011;6396;58.490;15.528;2023-07-24T00:54:35;2.40;;;2.20;;
12663;SDS011;6396;58.490;15.528;2023-07-24T00:57:02;3.80;;;2.63;;
12663;SDS011;6396;58.490;15.528;2023-07-24T00:59:30;2.97;;;2.60;;
12663;SDS011;6396;58.490;15.528;2023-07-24T01:02:00;3.73;;;2.63;;
12663;SDS011;6396;58.490;15.528;2023-07-24T01:04:27;2.97;;;2.67;;
12663;SDS011;6396;58.490;15.528;2023-07-24T01:06:54;3.13;;;2.53;;
12663;SDS011;6396;58.490;15.528;2023-07-24T01:09:21;3.33;;;2.83;;
12663;SDS011;6396;58.490;15.528;2023-07-24T01:11:50;6.50;;;2.80;;
12663;SDS011;6396;58.490;15.528;2023-07-24T01:14:21;3.23;;;2.40;;
12663;SDS011;6396;58.490;15.528;2023-07-24T01:16:51;3.43;;;2.37;;
12663;SDS011;6396;58.490;15.528;2023-07-24T01:19:27;2.50;;;2.30;;
12663;SDS011;6396;58.490;15.528;2023-07-24T01:22:06;2.97;;;2.60;;
12663;SDS011;6396;58.490;15.528;2023-07-24T01:24:43;2.50;;;2.30;;
12663;SDS011;6396;58.490;15.528;2023-07-24T01:27:23;3.20;;;2.63;;
12663;SDS011;6396;58.490;15.528;2023-07-24T01:29:53;2.77;;;2.53;;
12663;SDS011;6396;58.490;15.528;2023-07-24T01:36:34;3.03;;;2.73;;
12663;SDS011;6396;58.490;15.528;2023-07-24T01:39:23;2.97;;;2.67;;
12663;SDS011;6396;58.490;15.528;2023-07-24T01:41:50;4.40;;;2.73;;
12663;SDS011;6396;58.490;15.528;2023-07-24T01:44:19;3.60;;;2.63;;
12663;SDS011;6396;58.490;15.528;2023-07-24T01:46:45;3.40;;;2.77;;
12663;SDS011;6396;58.490;15.528;2023-07-24T01:49:12;3.20;;;2.90;;
12663;SDS011;6396;58.490;15.528;2023-07-24T01:51:39;3.20;;;2.83;;
12663;SDS011;6396;58.490;15.528;2023-07-24T01:54:05;3.67;;;3.37;;
12663;SDS011;6396;58.490;15.528;2023-07-24T01:56:33;3.07;;;2.63;;
12663;SDS011;6396;58.490;15.528;2023-07-24T01:59:01;4.27;;;3.27;;
12663;SDS011;6396;58.490;15.528;2023-07-24T02:01:30;3.37;;;2.70;;
12663;SDS011;6396;58.490;15.528;2023-07-24T02:03:56;5.17;;;3.13;;
12663;SDS011;6396;58.490;15.528;2023-07-24T02:06:23;4.47;;;3.30;;
12663;SDS011;6396;58.490;15.528;2023-07-24T02:08:50;3.30;;;2.70;;
12663;SDS011;6396;58.490;15.528;2023-07-24T02:11:17;2.60;;;2.40;;
12663;SDS011;6396;58.490;15.528;2023-07-24T02:13:44;3.83;;;2.90;;
12663;SDS011;6396;58.490;15.528;2023-07-24T02:16:11;3.23;;;2.77;;
12663;SDS011;6396;58.490;15.528;2023-07-24T02:18:40;2.80;;;2.50;;
12663;SDS011;6396;58.490;15.528;2023-07-24T02:21:07;3.00;;;2.70;;
12663;SDS011;6396;58.490;15.528;2023-07-24T02:23:34;3.30;;;3.00;;
12663;SDS011;6396;58.490;15.528;2023-07-24T02:26:01;4.13;;;3.03;;
12663;SDS011;6396;58.490;15.528;2023-07-24T02:28:28;3.87;;;2.87;;
12663;SDS011;6396;58.490;15.528;2023-07-24T02:30:55;3.57;;;2.83;;
12663;SDS011;6396;58.490;15.528;2023-07-24T02:33:22;2.60;;;2.40;;
12663;SDS011;6396;58.490;15.528;2023-07-24T02:35:51;5.40;;;2.73;;
12663;SDS011;6396;58.490;15.528;2023-07-24T02:38:18;3.33;;;2.87;;
12663;SDS011;6396;58.490;15.528;2023-07-24T02:40:45;3.07;;;2.77;;
12663;SDS011;6396;58.490;15.528;2023-07-24T02:43:12;3.00;;;2.80;;
12663;SDS011;6396;58.490;15.528;2023-07-24T02:45:39;3.77;;;3.10;;
12663;SDS011;6396;58.490;15.528;2023-07-24T02:48:05;3.30;;;2.90;;
12663;SDS011;6396;58.490;15.528;2023-07-24T02:50:32;3.37;;;2.90;;
12663;SDS011;6396;58.490;15.528;2023-07-24T02:53:01;3.10;;;2.90;;
12663;SDS011;6396;58.490;15.528;2023-07-24T02:55:29;2.90;;;2.70;;
12663;SDS011;6396;58.490;15.528;2023-07-24T02:57:55;3.60;;;3.30;;
12663;SDS011;6396;58.490;15.528;2023-07-24T03:00:22;3.13;;;2.83;;
12663;SDS011;6396;58.490;15.528;2023-07-24T03:02:49;4.47;;;3.23;;
12663;SDS011;6396;58.490;15.528;2023-07-24T03:05:16;3.40;;;3.10;;
12663;SDS011;6396;58.490;15.528;2023-07-24T03:07:43;3.10;;;2.80;;
12663;SDS011;6396;58.490;15.528;2023-07-24T03:10:11;4.07;;;2.90;;
12663;SDS011;6396;58.490;15.528;2023-07-24T03:12:38;3.70;;;2.90;;
12663;SDS011;6396;58.490;15.528;2023-07-24T03:15:05;5.30;;;2.90;;
12663;SDS011;6396;58.490;15.528;2023-07-24T03:17:33;3.47;;;2.70;;
12663;SDS011;6396;58.490;15.528;2023-07-24T03:20:07;3.37;;;2.70;;
12663;SDS011;6396;58.490;15.528;2023-07-24T03:22:34;3.50;;;3.20;;
12663;SDS011;6396;58.490;15.528;2023-07-24T03:25:01;3.40;;;3.10;;
12663;SDS011;6396;58.490;15.528;2023-07-24T03:27:29;3.50;;;3.20;;
12663;SDS011;6396;58.490;15.528;2023-07-24T03:29:56;3.20;;;2.73;;
12663;SDS011;6396;58.490;15.528;2023-07-24T03:32:23;3.20;;;3.00;;
12663;SDS011;6396;58.490;15.528;2023-07-24T03:34:49;3.30;;;2.87;;
12663;SDS011;6396;58.490;15.528;2023-07-24T03:37:16;4.27;;;3.23;;
12663;SDS011;6396;58.490;15.528;2023-07-24T03:39:43;3.30;;;2.90;;
12663;SDS011;6396;58.490;15.528;2023-07-24T03:42:10;3.03;;;2.73;;
12663;SDS011;6396;58.490;15.528;2023-07-24T03:44:39;3.07;;;2.87;;
12663;SDS011;6396;58.490;15.528;2023-07-24T03:47:06;3.10;;;2.90;;
12663;SDS011;6396;58.490;15.528;2023-07-24T03:49:33;3.77;;;2.93;;
12663;SDS011;6396;58.490;15.528;2023-07-24T03:52:00;4.70;;;3.20;;
12663;SDS011;6396;58.490;15.528;2023-07-24T03:54:27;4.07;;;2.97;;
12663;SDS011;6396;58.490;15.528;2023-07-24T03:56:54;3.10;;;2.80;;
12663;SDS011;6396;58.490;15.528;2023-07-24T03:59:21;3.40;;;3.10;;
12663;SDS011;6396;58.490;15.528;2023-07-24T04:01:49;3.43;;;3.13;;
12663;SDS011;6396;58.490;15.528;2023-07-24T04:04:15;4.00;;;3.20;;
12663;SDS011;6396;58.490;15.528;2023-07-24T04:06:42;3.50;;;2.90;;
12663;SDS011;6396;58.490;15.528;2023-07-24T04:09:09;2.97;;;2.67;;
12663;SDS011;6396;58.490;15.528;2023-07-24T04:11:39;3.47;;;3.17;;
12663;SDS011;6396;58.490;15.528;2023-07-24T04:14:06;4.37;;;3.13;;
12663;SDS011;6396;58.490;15.528;2023-07-24T04:16:33;3.43;;;3.13;;
12663;SDS011;6396;58.490;15.528;2023-07-24T04:19:01;2.83;;;2.63;;
12663;SDS011;6396;58.490;15.528;2023-07-24T04:21:28;3.63;;;3.20;;
12663;SDS011;6396;58.490;15.528;2023-07-24T04:23:55;3.97;;;3.57;;
12663;SDS011;6396;58.490;15.528;2023-07-24T04:26:22;4.00;;;2.93;;
12663;SDS011;6396;58.490;15.528;2023-07-24T04:28:48;3.30;;;2.97;;
12663;SDS011;6396;58.490;15.528;2023-07-24T04:31:15;3.77;;;3.20;;
12663;SDS011;6396;58.490;15.528;2023-07-24T04:33:42;3.20;;;2.80;;
12663;SDS011;6396;58.490;15.528;2023-07-24T04:36:11;3.83;;;3.30;;
12663;SDS011;6396;58.490;15.528;2023-07-24T04:38:37;3.43;;;3.13;;
12663;SDS011;6396;58.490;15.528;2023-07-24T04:41:04;3.43;;;3.00;;
12663;SDS011;6396;58.490;15.528;2023-07-24T04:43:31;4.83;;;3.80;;
12663;SDS011;6396;58.490;15.528;2023-07-24T04:45:59;3.70;;;3.30;;
12663;SDS011;6396;58.490;15.528;2023-07-24T04:48:26;3.40;;;3.00;;
12663;SDS011;6396;58.490;15.528;2023-07-24T04:50:53;3.13;;;2.63;;
12663;SDS011;6396;58.490;15.528;2023-07-24T04:53:22;4.67;;;3.37;;
12663;SDS011;6396;58.490;15.528;2023-07-24T04:55:49;3.53;;;3.20;;
12663;SDS011;6396;58.490;15.528;2023-07-24T04:58:16;3.33;;;3.03;;
12663;SDS011;6396;58.490;15.528;2023-07-24T05:00:43;3.83;;;3.47;;
12663;SDS011;6396;58.490;15.528;2023-07-24T05:03:09;2.90;;;2.70;;
12663;SDS011;6396;58.490;15.528;2023-07-24T05:05:37;4.43;;;3.10;;
12663;SDS011;6396;58.490;15.528;2023-07-24T05:08:03;3.83;;;3.40;;
12663;SDS011;6396;58.490;15.528;2023-07-24T05:10:35;4.07;;;3.40;;
12663;SDS011;6396;58.490;15.528;2023-07-24T05:13:02;4.10;;;3.07;;
12663;SDS011;6396;58.490;15.528;2023-07-24T05:15:29;3.67;;;3.30;;
12663;SDS011;6396;58.490;15.528;2023-07-24T05:17:56;3.37;;;3.07;;
12663;SDS011;6396;58.490;15.528;2023-07-24T05:20:23;3.63;;;3.33;;
12663;SDS011;6396;58.490;15.528;2023-07-24T05:22:49;3.40;;;3.10;;
12663;SDS011;6396;58.490;15.528;2023-07-24T05:25:16;3.30;;;3.00;;
12663;SDS011;6396;58.490;15.528;2023-07-24T05:27:44;3.67;;;3.37;;
12663;SDS011;6396;58.490;15.528;2023-07-24T05:30:11;3.80;;;3.30;;
12663;SDS011;6396;58.490;15.528;2023-07-24T05:32:38;3.50;;;3.20;;
12663;SDS011;6396;58.490;15.528;2023-07-24T05:35:05;3.50;;;3.20;;
12663;SDS011;6396;58.490;15.528;2023-07-24T05:37:32;3.43;;;3.13;;
12663;SDS011;6396;58.490;15.528;2023-07-24T05:39:59;3.20;;;2.90;;
12663;SDS011;6396;58.490;15.528;2023-07-24T05:42:25;5.13;;;3.60;;
12663;SDS011;6396;58.490;15.528;2023-07-24T05:44:53;3.80;;;3.00;;
12663;SDS011;6396;58.490;15.528;2023-07-24T05:47:20;3.47;;;3.10;;
12663;SDS011;6396;58.490;15.528;2023-07-24T05:49:47;4.93;;;2.80;;
12663;SDS011;6396;58.490;15.528;2023-07-24T05:52:14;3.27;;;2.97;;
12663;SDS011;6396;58.490;15.528;2023-07-24T05:54:40;3.17;;;2.90;;
12663;SDS011;6396;58.490;15.528;2023-07-24T05:57:07;3.53;;;3.23;;
12663;SDS011;6396;58.490;15.528;2023-07-24T05:59:34;4.57;;;3.00;;
12663;SDS011;6396;58.490;15.528;2023-07-24T06:02:02;3.30;;;3.00;;
12663;SDS011;6396;58.490;15.528;2023-07-24T06:04:30;3.07;;;2.77;;
12663;SDS011;6396;58.490;15.528;2023-07-24T06:06:57;3.27;;;2.97;;
12663;SDS011;6396;58.490;15.528;2023-07-24T06:09:24;2.73;;;2.53;;
12663;SDS011;6396;58.490;15.528;2023-07-24T06:11:53;3.17;;;2.87;;
12663;SDS011;6396;58.490;15.528;2023-07-24T06:14:20;3.50;;;2.70;;
12663;SDS011;6396;58.490;15.528;2023-07-24T06:16:47;3.43;;;2.77;;
12663;SDS011;6396;58.490;15.528;2023-07-24T06:19:15;3.80;;;3.30;;
12663;SDS011;6396;58.490;15.528;2023-07-24T06:21:42;3.07;;;2.53;;
12663;SDS011;6396;58.490;15.528;2023-07-24T06:24:09;3.10;;;2.80;;
12663;SDS011;6396;58.490;15.528;2023-07-24T06:26:37;3.03;;;2.73;;
12663;SDS011;6396;58.490;15.528;2023-07-24T06:29:04;2.60;;;2.40;;
12663;SDS011;6396;58.490;15.528;2023-07-24T06:31:31;3.07;;;2.77;;
12663;SDS011;6396;58.490;15.528;2023-07-24T06:33:58;2.57;;;2.37;;
12663;SDS011;6396;58.490;15.528;2023-07-24T06:36:26;2.63;;;2.20;;
12663;SDS011;6396;58.490;15.528;2023-07-24T06:38:53;2.80;;;2.60;;
12663;SDS011;6396;58.490;15.528;2023-07-24T06:41:19;3.60;;;2.87;;
12663;SDS011;6396;58.490;15.528;2023-07-24T06:43:48;3.10;;;2.80;;
12663;SDS011;6396;58.490;15.528;2023-07-24T06:46:15;2.63;;;2.43;;
12663;SDS011;6396;58.490;15.528;2023-07-24T06:48:41;2.90;;;2.60;;
12663;SDS011;6396;58.490;15.528;2023-07-24T06:51:08;3.60;;;2.83;;
12663;SDS011;6396;58.490;15.528;2023-07-24T06:53:37;3.00;;;2.50;;
12663;SDS011;6396;58.490;15.528;2023-07-24T06:56:04;3.07;;;2.40;;
12663;SDS011;6396;58.490;15.528;2023-07-24T06:58:31;2.57;;;2.37;;
12663;SDS011;6396;58.490;15.528;2023-07-24T07:00:58;2.70;;;2.50;;
12663;SDS011;6396;58.490;15.528;2023-07-24T07:03:26;3.33;;;2.57;;
12663;SDS011;6396;58.490;15.528;2023-07-24T07:05:58;3.13;;;2.20;;
12663;SDS011;6396;58.490;15.528;2023-07-24T07:08:28;3.47;;;2.30;;
12663;SDS011;6396;58.490;15.528;2023-07-24T07:10:58;1.97;;;1.80;;
12663;SDS011;6396;58.490;15.528;2023-07-24T07:13:31;2.20;;;2.00;;
12663;SDS011;6396;58.490;15.528;2023-07-24T07:15:59;2.70;;;2.50;;
12663;SDS011;6396;58.490;15.528;2023-07-24T07:18:26;2.20;;;1.90;;
12663;SDS011;6396;58.490;15.528;2023-07-24T07:20:53;3.00;;;2.13;;
12663;SDS011;6396;58.490;15.528;2023-07-24T07:23:20;1.97;;;1.77;;
12663;SDS011;6396;58.490;15.528;2023-07-24T07:25:50;1.90;;;1.80;;
12663;SDS011;6396;58.490;15.528;2023-07-24T07:28:19;2.20;;;2.00;;
12663;SDS011;6396;58.490;15.528;2023-07-24T07:30:46;2.20;;;2.00;;
12663;SDS011;6396;58.490;15.528;2023-07-24T07:33:13;2.20;;;2.00;;
12663;SDS011;6396;58.490;15.528;2023-07-24T07:35:40;2.17;;;1.97;;
12663;SDS011;6396;58.490;15.528;2023-07-24T07:38:07;2.23;;;1.90;;
12663;SDS011;6396;58.490;15.528;2023-07-24T07:40:33;2.30;;;2.10;;
12663;SDS011;6396;58.490;15.528;2023-07-24T07:43:03;2.07;;;1.87;;
12663;SDS011;6396;58.490;15.528;2023-07-24T07:45:31;2.10;;;1.90;;
12663;SDS011;6396;58.490;15.528;2023-07-24T07:48:08;2.47;;;2.10;;
12663;SDS011;6396;58.490;15.528;2023-07-24T07:50:35;2.20;;;2.00;;
12663;SDS011;6396;58.490;15.528;2023-07-24T07:53:02;2.80;;;2.10;;
12663;SDS011;6396;58.490;15.528;2023-07-24T07:55:29;2.77;;;2.30;;
12663;SDS011;6396;58.490;15.528;2023-07-24T07:57:55;2.70;;;1.83;;
12663;SDS011;6396;58.490;15.528;2023-07-24T08:00:22;1.53;;;1.37;;
12663;SDS011;6396;58.490;15.528;2023-07-24T08:02:53;1.53;;;1.43;;
12663;SDS011;6396;58.490;15.528;2023-07-24T08:05:20;1.60;;;1.40;;
12663;SDS011;6396;58.490;15.528;2023-07-24T08:07:47;1.43;;;1.33;;
12663;SDS011;6396;58.490;15.528;2023-07-24T08:10:14;1.60;;;1.50;;
12663;SDS011;6396;58.490;15.528;2023-07-24T08:12:42;3.37;;;1.90;;
12663;SDS011;6396;58.490;15.528;2023-07-24T08:15:10;1.70;;;1.60;;
12663;SDS011;6396;58.490;15.528;2023-07-24T08:17:38;2.00;;;1.80;;
12663;SDS011;6396;58.490;15.528;2023-07-24T08:20:15;1.70;;;1.47;;
12663;SDS011;6396;58.490;15.528;2023-07-24T08:22:42;2.83;;;1.60;;
12663;SDS011;6396;58.490;15.528;2023-07-24T08:25:09;1.60;;;1.50;;
12663;SDS011;6396;58.490;15.528;2023-07-24T08:27:35;5.90;;;2.13;;
12663;SDS011;6396;58.490;15.528;2023-07-24T08:30:02;11.17;;;3.00;;
12663;SDS011;6396;58.490;15.528;2023-07-24T08:32:29;3.30;;;1.87;;
12663;SDS011;6396;58.490;15.528;2023-07-24T08:34:56;2.57;;;1.70;;
12663;SDS011;6396;58.490;15.528;2023-07-24T08:37:24;1.83;;;1.67;;
12663;SDS011;6396;58.490;15.528;2023-07-24T08:39:51;3.10;;;1.63;;
12663;SDS011;6396;58.490;15.528;2023-07-24T08:42:18;1.70;;;1.60;;
12663;SDS011;6396;58.490;15.528;2023-07-24T08:44:45;2.03;;;1.70;;
12663;SDS011;6396;58.490;15.528;2023-07-24T08:47:12;2.47;;;1.70;;
12663;SDS011;6396;58.490;15.528;2023-07-24T08:49:41;1.37;;;1.27;;
12663;SDS011;6396;58.490;15.528;2023-07-24T08:52:09;2.80;;;1.60;;
12663;SDS011;6396;58.490;15.528;2023-07-24T08:54:38;2.73;;;1.40;;
12663;SDS011;6396;58.490;15.528;2023-07-24T08:57:06;1.73;;;1.30;;
12663;SDS011;6396;58.490;15.528;2023-07-24T08:59:33;1.20;;;1.10;;
12663;SDS011;6396;58.490;15.528;2023-07-24T09:02:01;2.20;;;1.30;;
12663;SDS011;6396;58.490;15.528;2023-07-24T09:04:28;1.43;;;1.20;;
12663;SDS011;6396;58.490;15.528;2023-07-24T09:06:56;1.40;;;1.30;;
12663;SDS011;6396;58.490;15.528;2023-07-24T09:09:23;1.87;;;1.50;;
12663;SDS011;6396;58.490;15.528;2023-07-24T09:11:52;2.47;;;1.30;;
12663;SDS011;6396;58.490;15.528;2023-07-24T09:14:20;1.20;;;1.10;;
12663;SDS011;6396;58.490;15.528;2023-07-24T09:16:47;2.13;;;1.20;;
12663;SDS011;6396;58.490;15.528;2023-07-24T09:19:18;1.20;;;1.10;;
12663;SDS011;6396;58.490;15.528;2023-07-24T09:21:45;0.90;;;0.90;;
12663;SDS011;6396;58.490;15.528;2023-07-24T09:24:12;1.53;;;1.40;;
12663;SDS011;6396;58.490;15.528;2023-07-24T09:26:46;2.67;;;1.40;;
12663;SDS011;6396;58.490;15.528;2023-07-24T09:29:18;1.77;;;1.10;;
12663;SDS011;6396;58.490;15.528;2023-07-24T09:31:47;1.30;;;1.20;;
12663;SDS011;6396;58.490;15.528;2023-07-24T09:34:15;1.57;;;1.27;;
12663;SDS011;6396;58.490;15.528;2023-07-24T09:36:43;1.30;;;1.20;;
12663;SDS011;6396;58.490;15.528;2023-07-24T09:39:10;1.97;;;1.20;;
12663;SDS011;6396;58.490;15.528;2023-07-24T09:41:38;1.50;;;1.20;;
12663;SDS011;6396;58.490;15.528;2023-07-24T09:44:05;1.20;;;1.10;;
12663;SDS011;6396;58.490;15.528;2023-07-24T09:46:34;1.90;;;1.30;;
12663;SDS011;6396;58.490;15.528;2023-07-24T09:49:01;1.20;;;1.10;;
12663;SDS011;6396;58.490;15.528;2023-07-24T09:51:29;1.43;;;1.33;;
12663;SDS011;6396;58.490;15.528;2023-07-24T09:53:58;1.50;;;1.40;;
12663;SDS011;6396;58.490;15.528;2023-07-24T09:56:31;1.50;;;1.10;;
12663;SDS011;6396;58.490;15.528;2023-07-24T09:58:59;1.53;;;1.17;;
12663;SDS011;6396;58.490;15.528;2023-07-24T10:01:28;1.40;;;1.30;;
12663;SDS011;6396;58.490;15.528;2023-07-24T10:03:59;1.30;;;1.20;;
12663;SDS011;6396;58.490;15.528;2023-07-24T10:06:27;1.47;;;1.37;;
12663;SDS011;6396;58.490;15.528;2023-07-24T10:08:56;1.10;;;1.00;;
12663;SDS011;6396;58.490;15.528;2023-07-24T10:11:24;1.40;;;1.30;;
12663;SDS011;6396;58.490;15.528;2023-07-24T10:13:54;1.40;;;1.30;;
12663;SDS011;6396;58.490;15.528;2023-07-24T10:16:21;1.40;;;1.20;;
12663;SDS011;6396;58.490;15.528;2023-07-24T10:18:48;1.30;;;1.20;;
12663;SDS011;6396;58.490;15.528;2023-07-24T10:21:17;1.40;;;1.30;;
12663;SDS011;6396;58.490;15.528;2023-07-24T10:23:47;1.40;;;1.30;;
12663;SDS011;6396;58.490;15.528;2023-07-24T10:26:14;1.30;;;1.20;;
12663;SDS011;6396;58.490;15.528;2023-07-24T10:28:41;1.30;;;1.20;;
12663;SDS011;6396;58.490;15.528;2023-07-24T10:34:07;1.20;;;1.10;;
12663;SDS011;6396;58.490;15.528;2023-07-24T10:36:36;1.63;;;1.37;;
12663;SDS011;6396;58.490;15.528;2023-07-24T10:39:12;1.67;;;1.30;;
12663;SDS011;6396;58.490;15.528;2023-07-24T10:41:41;1.40;;;1.30;;
12663;SDS011;6396;58.490;15.528;2023-07-24T10:44:10;1.20;;;1.10;;
12663;SDS011;6396;58.490;15.528;2023-07-24T10:46:39;2.07;;;1.13;;
12663;SDS011;6396;58.490;15.528;2023-07-24T10:49:35;1.30;;;1.10;;
12663;SDS011;6396;58.490;15.528;2023-07-24T10:52:07;1.33;;;1.10;;
12663;SDS011;6396;58.490;15.528;2023-07-24T10:54:34;1.30;;;1.20;;
12663;SDS011;6396;58.490;15.528;2023-07-24T10:57:02;0.90;;;0.90;;
12663;SDS011;6396;58.490;15.528;2023-07-24T10:59:35;1.40;;;1.30;;
12663;SDS011;6396;58.490;15.528;2023-07-24T11:02:03;1.40;;;1.30;;
12663;SDS011;6396;58.490;15.528;2023-07-24T11:04:31;1.70;;;1.60;;
12663;SDS011;6396;58.490;15.528;2023-07-24T11:06:59;1.50;;;1.40;;
12663;SDS011;6396;58.490;15.528;2023-07-24T11:09:35;2.10;;;1.40;;
12663;SDS011;6396;58.490;15.528;2023-07-24T11:12:11;1.73;;;1.63;;
12663;SDS011;6396;58.490;15.528;2023-07-24T11:14:46;1.90;;;1.80;;
12663;SDS011;6396;58.490;15.528;2023-07-24T11:17:16;2.00;;;1.80;;
12663;SDS011;6396;58.490;15.528;2023-07-24T11:19:43;2.03;;;1.60;;
12663;SDS011;6396;58.490;15.528;2023-07-24T11:22:10;1.60;;;1.50;;
12663;SDS011;6396;58.490;15.528;2023-07-24T11:24:46;1.77;;;1.67;;
12663;SDS011;6396;58.490;15.528;2023-07-24T11:27:13;1.70;;;1.60;;
12663;SDS011;6396;58.490;15.528;2023-07-24T11:29:41;1.63;;;1.53;;
12663;SDS011;6396;58.490;15.528;2023-07-24T11:32:08;1.93;;;1.73;;
12663;SDS011;6396;58.490;15.528;2023-07-24T11:34:35;1.57;;;1.47;;
12663;SDS011;6396;58.490;15.528;2023-07-24T11:37:02;1.73;;;1.47;;
12663;SDS011;6396;58.490;15.528;2023-07-24T11:39:30;1.90;;;1.80;;
12663;SDS011;6396;58.490;15.528;2023-07-24T11:41:58;1.60;;;1.50;;
12663;SDS011;6396;58.490;15.528;2023-07-24T11:44:27;3.40;;;1.80;;
12663;SDS011;6396;58.490;15.528;2023-07-24T11:47:00;1.40;;;1.30;;
12663;SDS011;6396;58.490;15.528;2023-07-24T11:49:28;2.27;;;1.60;;
12663;SDS011;6396;58.490;15.528;2023-07-24T11:52:00;1.67;;;1.57;;
12663;SDS011;6396;58.490;15.528;2023-07-24T11:54:27;2.30;;;1.83;;
12663;SDS011;6396;58.490;15.528;2023-07-24T11:56:55;2.03;;;1.87;;
12663;SDS011;6396;58.490;15.528;2023-07-24T11:59:26;1.80;;;1.70;;
12663;SDS011;6396;58.490;15.528;2023-07-24T12:01:53;1.90;;;1.80;;
12663;SDS011;6396;58.490;15.528;2023-07-24T12:04:24;2.00;;;1.90;;
12663;SDS011;6396;58.490;15.528;2023-07-24T12:07:00;1.67;;;1.57;;
12663;SDS011;6396;58.490;15.528;2023-07-24T12:09:29;1.70;;;1.60;;
12663;SDS011;6396;58.490;15.528;2023-07-24T12:11:58;1.70;;;1.60;;
12663;SDS011;6396;58.490;15.528;2023-07-24T12:14:25;2.20;;;2.00;;
12663;SDS011;6396;58.490;15.528;2023-07-24T12:16:59;2.67;;;2.30;;
12663;SDS011;6396;58.490;15.528;2023-07-24T12:19:27;2.50;;;2.30;;
12663;SDS011;6396;58.490;15.528;2023-07-24T12:21:53;2.40;;;2.20;;
12663;SDS011;6396;58.490;15.528;2023-07-24T12:24:20;2.53;;;2.33;;
12663;SDS011;6396;58.490;15.528;2023-07-24T12:26:48;3.23;;;2.30;;
12663;SDS011;6396;58.490;15.528;2023-07-24T12:29:15;1.80;;;1.70;;
12663;SDS011;6396;58.490;15.528;2023-07-24T12:31:47;1.90;;;1.67;;
12663;SDS011;6396;58.490;15.528;2023-07-24T12:34:19;1.90;;;1.80;;
12663;SDS011;6396;58.490;15.528;2023-07-24T12:36:54;2.27;;;2.07;;
12663;SDS011;6396;58.490;15.528;2023-07-24T12:39:30;2.33;;;2.03;;
12663;SDS011;6396;58.490;15.528;2023-07-24T12:41:59;2.60;;;2.40;;
12663;SDS011;6396;58.490;15.528;2023-07-24T12:44:27;2.50;;;2.30;;
12663;SDS011;6396;58.490;15.528;2023-07-24T12:47:45;2.93;;;2.57;;
12663;SDS011;6396;58.490;15.528;2023-07-24T12:50:11;3.57;;;2.60;;
12663;SDS011;6396;58.490;15.528;2023-07-24T12:52:38;3.43;;;3.07;;
12663;SDS011;6396;58.490;15.528;2023-07-24T12:55:05;3.73;;;3.40;;
12663;SDS011;6396;58.490;15.528;2023-07-24T12:57:33;3.20;;;2.90;;
12663;SDS011;6396;58.490;15.528;2023-07-24T13:00:01;2.73;;;2.53;;
12663;SDS011;6396;58.490;15.528;2023-07-24T13:02:30;3.07;;;2.87;;
12663;SDS011;6396;58.490;15.528;2023-07-24T13:04:58;2.77;;;2.57;;
12663;SDS011;6396;58.490;15.528;2023-07-24T13:07:25;3.43;;;3.10;;
12663;SDS011;6396;58.490;15.528;2023-07-24T13:09:54;4.43;;;3.13;;
12663;SDS011;6396;58.490;15.528;2023-07-24T13:12:26;3.20;;;2.90;;
12663;SDS011;6396;58.490;15.528;2023-07-24T13:14:52;3.50;;;3.20;;
12663;SDS011;6396;58.490;15.528;2023-07-24T13:17:20;3.50;;;2.60;;
12663;SDS011;6396;58.490;15.528;2023-07-24T13:19:48;3.30;;;3.00;;
12663;SDS011;6396;58.490;15.528;2023-07-24T13:22:17;3.80;;;3.13;;
12663;SDS011;6396;58.490;15.528;2023-07-24T13:24:44;3.77;;;3.40;;
12663;SDS011;6396;58.490;15.528;2023-07-24T13:27:11;4.07;;;3.77;;
12663;SDS011;6396;58.490;15.528;2023-07-24T13:29:37;4.37;;;3.97;;
12663;SDS011;6396;58.490;15.528;2023-07-24T13:32:04;4.67;;;4.27;;
12663;SDS011;6396;58.490;15.528;2023-07-24T13:34:31;4.87;;;4.37;;
12663;SDS011;6396;58.490;15.528;2023-07-24T13:36:58;3.40;;;3.10;;
12663;SDS011;6396;58.490;15.528;2023-07-24T13:39:28;3.30;;;2.90;;
12663;SDS011;6396;58.490;15.528;2023-07-24T13:41:56;3.70;;;3.40;;
12663;SDS011;6396;58.490;15.528;2023-07-24T13:44:23;4.20;;;3.80;;
12663;SDS011;6396;58.490;15.528;2023-07-24T13:46:50;3.93;;;3.40;;
12663;SDS011;6396;58.490;15.528;2023-07-24T13:49:16;5.97;;;3.53;;
12663;SDS011;6396;58.490;15.528;2023-07-24T13:51:43;4.27;;;3.87;;
12663;SDS011;6396;58.490;15.528;2023-07-24T13:54:10;4.50;;;4.10;;
12663;SDS011;6396;58.490;15.528;2023-07-24T13:56:39;4.20;;;3.80;;
12663;SDS011;6396;58.490;15.528;2023-07-24T13:59:05;4.20;;;3.83;;
12663;SDS011;6396;58.490;15.528;2023-07-24T14:01:32;4.40;;;4.00;;
12663;SDS011;6396;58.490;15.528;2023-07-24T14:03:59;4.37;;;3.97;;
12663;SDS011;6396;58.490;15.528;2023-07-24T14:06:26;4.03;;;3.67;;
12663;SDS011;6396;58.490;15.528;2023-07-24T14:08:53;4.57;;;4.10;;
12663;SDS011;6396;58.490;15.528;2023-07-24T14:11:20;4.53;;;4.03;;
12663;SDS011;6396;58.490;15.528;2023-07-24T14:13:49;4.73;;;4.23;;
12663;SDS011;6396;58.490;15.528;2023-07-24T14:16:16;5.03;;;3.97;;
12663;SDS011;6396;58.490;15.528;2023-07-24T14:18:43;4.77;;;4.23;;
12663;SDS011;6396;58.490;15.528;2023-07-24T14:21:10;4.43;;;4.03;;
12663;SDS011;6396;58.490;15.528;2023-07-24T14:23:36;4.00;;;3.70;;
12663;SDS011;6396;58.490;15.528;2023-07-24T14:26:03;3.83;;;3.43;;
12663;SDS011;6396;58.490;15.528;2023-07-24T14:28:30;4.23;;;3.53;;
12663;SDS011;6396;58.490;15.528;2023-07-24T14:30:58;4.37;;;3.43;;
12663;SDS011;6396;58.490;15.528;2023-07-24T14:33:25;4.73;;;3.47;;
12663;SDS011;6396;58.490;15.528;2023-07-24T14:35:52;3.90;;;3.50;;
12663;SDS011;6396;58.490;15.528;2023-07-24T14:38:19;4.20;;;3.80;;
12663;SDS011;6396;58.490;15.528;2023-07-24T14:40:46;4.57;;;3.77;;
12663;SDS011;6396;58.490;15.528;2023-07-24T14:43:13;4.40;;;3.20;;
12663;SDS011;6396;58.490;15.528;2023-07-24T14:45:40;3.47;;;3.17;;
12663;SDS011;6396;58.490;15.528;2023-07-24T14:48:08;3.90;;;3.60;;
12663;SDS011;6396;58.490;15.528;2023-07-24T14:50:37;4.00;;;3.70;;
12663;SDS011;6396;58.490;15.528;2023-07-24T14:53:04;4.53;;;3.60;;
12663;SDS011;6396;58.490;15.528;2023-07-24T14:55:31;5.37;;;4.20;;
12663;SDS011;6396;58.490;15.528;2023-07-24T14:57:58;4.13;;;3.73;;
12663;SDS011;6396;58.490;15.528;2023-07-24T15:00:24;5.70;;;4.27;;